createdAt,value
2023-01-29T00:00:21.069Z,67
2023-01-29T00:01:21.067Z,62
2023-01-29T00:02:21.142Z,71
2023-01-29T00:03:21.111Z,65
2023-01-29T00:04:21.088Z,69
2023-01-29T00:05:27.913Z,62
2023-01-29T00:06:21.080Z,72
2023-01-29T00:07:21.064Z,70
2023-01-29T00:09:21.054Z,58
2023-01-29T00:10:21.168Z,67
2023-01-29T00:11:21.071Z,69
2023-01-29T00:12:21.060Z,65
2023-01-29T00:13:21.088Z,61
2023-01-29T00:14:21.062Z,63
2023-01-29T00:15:21.060Z,64
2023-01-29T00:16:21.068Z,67
2023-01-29T00:17:21.125Z,65
2023-01-29T00:18:21.057Z,61
2023-01-29T00:19:21.072Z,67
2023-01-29T00:20:21.054Z,67
2023-01-29T00:22:21.051Z,62
2023-01-29T00:23:21.080Z,71
2023-01-29T00:24:21.064Z,64
2023-01-29T00:25:21.097Z,66
2023-01-29T00:27:21.051Z,70
2023-01-29T00:28:21.069Z,69
2023-01-29T00:29:21.043Z,69
2023-01-29T00:30:21.062Z,67
2023-01-29T00:31:21.179Z,69
2023-01-29T00:32:21.276Z,70
2023-01-29T00:33:21.043Z,70
2023-01-29T00:34:21.045Z,61
2023-01-29T00:35:21.047Z,69
2023-01-29T00:37:21.046Z,70
2023-01-29T00:38:21.048Z,69
2023-01-29T00:39:21.047Z,68
2023-01-29T00:40:21.057Z,68
2023-01-29T00:41:21.052Z,67
2023-01-29T00:42:21.051Z,63
2023-01-29T00:43:21.047Z,70
2023-01-29T00:44:21.056Z,63
2023-01-29T00:45:21.072Z,70
2023-01-29T00:46:21.090Z,68
2023-01-29T00:48:21.055Z,63
2023-01-29T00:49:21.048Z,65
2023-01-29T00:50:21.055Z,61
2023-01-29T00:51:21.053Z,64
2023-01-29T00:52:21.055Z,63
2023-01-29T00:53:21.074Z,62
2023-01-29T00:54:21.078Z,64
2023-01-29T00:55:21.050Z,61
2023-01-29T00:56:21.052Z,64
2023-01-29T00:57:21.078Z,67
2023-01-29T00:58:21.069Z,63
2023-01-29T00:59:21.104Z,63
2023-01-29T01:00:21.045Z,63
2023-01-29T01:01:21.040Z,64
2023-01-29T01:02:21.136Z,64
2023-01-29T01:03:21.056Z,60
2023-01-29T01:04:21.054Z,68
2023-01-29T01:05:21.056Z,63
2023-01-29T01:06:21.055Z,60
2023-01-29T01:07:21.042Z,70
2023-01-29T05:56:20.952Z,59
2023-01-29T05:57:20.954Z,58
2023-01-29T05:58:20.971Z,59
2023-01-29T05:59:20.954Z,60
2023-01-29T06:00:21.070Z,55
2023-01-29T06:01:20.953Z,56
2023-01-29T06:02:20.972Z,62
2023-01-29T06:03:20.955Z,58
2023-01-29T06:04:20.952Z,58
2023-01-29T06:05:20.951Z,59
2023-01-29T06:07:20.963Z,59
2023-01-29T06:08:20.953Z,60
2023-01-29T06:09:21.173Z,55
2023-01-29T06:10:20.961Z,61
2023-01-29T06:11:20.958Z,58
2023-01-29T06:12:20.971Z,60
2023-01-29T06:13:23.551Z,55
2023-01-29T06:14:20.965Z,58
2023-01-29T06:15:20.956Z,52
2023-01-29T06:16:21.104Z,59
2023-01-29T06:17:20.957Z,55
2023-01-29T06:18:20.958Z,61
2023-01-29T06:19:20.945Z,69
2023-01-29T06:21:20.949Z,55
2023-01-29T06:22:20.947Z,58
2023-01-29T06:23:20.949Z,56
2023-01-29T06:24:21.009Z,59
2023-01-29T06:25:20.940Z,59
2023-01-29T06:27:20.948Z,57
2023-01-29T06:28:20.956Z,56
2023-01-29T06:29:20.970Z,56
2023-01-29T06:30:20.970Z,50
2023-01-29T06:31:36.709Z,55
2023-01-29T06:32:20.994Z,60
2023-01-29T06:33:20.960Z,56
2023-01-29T06:34:20.939Z,64
2023-01-29T06:36:20.947Z,61
2023-01-29T06:37:20.947Z,56
2023-01-29T06:38:20.933Z,56
2023-01-29T06:39:20.948Z,61
2023-01-29T06:40:21.001Z,59
2023-01-29T06:41:20.948Z,58
2023-01-29T06:42:20.946Z,62
2023-01-29T06:43:20.952Z,58
2023-01-29T06:44:20.949Z,60
2023-01-29T06:45:20.983Z,61
2023-01-29T06:46:20.943Z,53
2023-01-29T06:47:20.943Z,58
2023-01-29T06:49:20.959Z,59
2023-01-29T06:50:20.939Z,59
2023-01-29T06:51:20.961Z,63
2023-01-29T06:53:20.942Z,70
2023-01-29T06:54:20.943Z,53
2023-01-29T06:55:21.039Z,60
2023-01-29T06:58:20.949Z,55
2023-01-29T06:59:20.958Z,57
2023-01-29T07:00:20.941Z,59
2023-01-29T07:01:35.110Z,60
2023-01-29T07:03:20.939Z,61
2023-01-29T07:04:20.933Z,54
2023-01-29T07:05:20.940Z,59
2023-01-29T07:08:20.931Z,60
2023-01-29T07:09:20.933Z,60
2023-01-29T07:10:20.936Z,52
2023-01-29T07:11:20.933Z,61
2023-01-29T07:12:21.031Z,53
2023-01-29T07:13:20.933Z,60
2023-01-29T07:14:20.935Z,63
2023-01-29T07:15:20.933Z,62
2023-01-29T07:16:21.000Z,56
2023-01-29T07:17:20.929Z,62
2023-01-29T07:18:20.938Z,59
2023-01-29T07:20:20.936Z,61
2023-01-29T07:22:20.932Z,60
2023-01-29T07:24:21.025Z,58
2023-01-29T07:25:20.938Z,58
2023-01-29T07:26:20.944Z,59
2023-01-29T07:27:20.994Z,56
2023-01-29T07:29:20.933Z,59
2023-01-29T07:30:20.941Z,58
2023-01-29T07:32:21.045Z,61
2023-01-29T07:33:20.931Z,61
2023-01-29T07:34:20.926Z,65
2023-01-29T07:35:20.928Z,61
2023-01-29T07:36:20.922Z,60
2023-01-29T07:37:20.920Z,58
2023-01-29T07:39:20.928Z,66
2023-01-29T07:40:20.925Z,65
2023-01-29T07:41:20.926Z,64
2023-01-29T07:42:20.925Z,63
2023-01-29T07:43:20.929Z,51
2023-01-29T07:44:20.924Z,63
2023-01-29T07:45:20.932Z,54
2023-01-29T07:47:20.993Z,57
2023-01-29T07:48:20.929Z,56
2023-01-29T07:50:20.939Z,57
2023-01-29T07:51:20.931Z,65
2023-01-29T07:52:22.377Z,55
2023-01-29T07:53:20.937Z,49
2023-01-29T07:54:20.924Z,54
2023-01-29T07:55:20.935Z,64
2023-01-29T07:57:20.921Z,68
2023-01-29T07:58:20.919Z,57
2023-01-29T08:00:20.917Z,68
2023-01-29T08:01:21.027Z,63
2023-01-29T08:02:20.944Z,62
2023-01-29T08:03:20.941Z,66
2023-01-29T08:04:20.909Z,59
2023-01-29T08:05:20.923Z,55
2023-01-29T08:06:20.927Z,58
2023-01-29T08:07:20.912Z,57
2023-01-29T08:11:20.933Z,56
2023-01-29T08:12:20.919Z,54
2023-01-29T08:13:20.923Z,54
2023-01-29T08:15:20.928Z,63
2023-01-29T08:16:20.935Z,62
2023-01-29T08:17:20.922Z,56
2023-01-29T08:18:20.914Z,59
2023-01-29T08:19:20.905Z,63
2023-01-29T08:21:20.912Z,60
2023-01-29T08:22:20.908Z,59
2023-01-29T08:23:20.913Z,57
2023-01-29T08:24:21.085Z,57
2023-01-29T08:26:20.908Z,56
2023-01-29T08:27:20.904Z,56
2023-01-29T08:28:20.917Z,56
2023-01-29T08:30:20.928Z,63
2023-01-29T08:31:20.976Z,55
2023-01-29T08:32:20.915Z,56
2023-01-29T08:33:29.757Z,61
2023-01-29T08:34:20.942Z,56
2023-01-29T08:35:21.279Z,60
2023-01-29T08:36:20.902Z,61
2023-01-29T08:37:20.907Z,60
2023-01-29T08:38:20.910Z,58
2023-01-29T08:39:20.923Z,57
2023-01-29T08:40:21.050Z,58
2023-01-29T08:41:20.934Z,51
2023-01-29T08:43:20.907Z,64
2023-01-29T08:44:20.923Z,56
2023-01-29T08:45:20.911Z,58
2023-01-29T08:47:20.913Z,61
2023-01-29T08:49:20.976Z,60
2023-01-29T08:50:20.935Z,54
2023-01-29T08:51:20.925Z,58
2023-01-29T08:52:20.915Z,57
2023-01-29T08:53:20.906Z,57
2023-01-29T08:55:20.903Z,62
2023-01-29T08:56:20.901Z,55
2023-01-29T08:57:21.867Z,58
2023-01-29T08:59:20.910Z,52
2023-01-29T09:00:20.910Z,53
2023-01-29T09:01:20.927Z,59
2023-01-29T09:02:20.946Z,60
2023-01-29T09:03:20.908Z,61
2023-01-29T09:05:20.893Z,63
2023-01-29T09:06:20.899Z,47
2023-01-29T09:07:20.894Z,64
2023-01-29T09:08:20.923Z,70
2023-01-29T09:09:20.918Z,57
2023-01-29T09:10:20.907Z,52
2023-01-29T09:11:20.896Z,51
2023-01-29T09:12:20.891Z,52
2023-01-29T09:13:20.904Z,51
2023-01-29T09:14:20.920Z,55
2023-01-29T09:15:20.894Z,52
2023-01-29T09:16:20.961Z,51
2023-01-29T09:17:20.899Z,55
2023-01-29T09:18:20.914Z,60
2023-01-29T09:19:20.890Z,51
2023-01-29T09:20:20.902Z,56
2023-01-29T09:21:20.988Z,56
2023-01-29T09:22:20.921Z,60
2023-01-29T09:23:20.895Z,57
2023-01-29T09:25:20.888Z,50
2023-01-29T09:26:20.973Z,52
2023-01-29T09:27:20.899Z,64
2023-01-29T09:28:20.965Z,62
2023-01-29T09:29:20.904Z,58
2023-01-29T09:30:20.887Z,56
2023-01-29T09:31:21.052Z,54
2023-01-29T09:32:49.758Z,59
2023-01-29T09:33:20.895Z,65
2023-01-29T09:34:20.900Z,55
2023-01-29T09:35:20.910Z,60
2023-01-29T09:36:20.962Z,61
2023-01-29T09:37:21.138Z,57
2023-01-29T09:39:20.894Z,63
2023-01-29T09:40:20.886Z,58
2023-01-29T09:41:20.898Z,64
2023-01-29T09:42:20.883Z,53
2023-01-29T09:43:20.888Z,60
2023-01-29T09:44:20.890Z,59
2023-01-29T09:46:20.926Z,57
2023-01-29T09:47:20.887Z,65
2023-01-29T09:48:20.891Z,58
2023-01-29T09:49:20.929Z,62
2023-01-29T09:50:20.900Z,63
2023-01-29T09:51:20.898Z,57
2023-01-29T09:52:20.883Z,68
2023-01-29T09:53:20.894Z,68
2023-01-29T09:54:20.891Z,66
2023-01-29T09:55:20.905Z,61
2023-01-29T09:56:20.892Z,53
2023-01-29T09:58:20.884Z,62
2023-01-29T09:59:20.885Z,56
2023-01-29T10:00:20.889Z,53
2023-01-29T10:01:21.035Z,55
2023-01-29T10:02:21.026Z,57
2023-01-29T10:03:20.887Z,50
2023-01-29T10:04:20.964Z,58
2023-01-29T10:05:20.913Z,59
2023-01-29T10:06:20.886Z,51
2023-01-29T10:07:20.891Z,56
2023-01-29T10:08:20.882Z,52
2023-01-29T10:09:20.874Z,51
2023-01-29T10:10:20.927Z,58
2023-01-29T10:11:20.893Z,55
2023-01-29T10:12:20.874Z,55
2023-01-29T10:13:20.881Z,58
2023-01-29T10:14:20.896Z,53
2023-01-29T10:15:20.889Z,56
2023-01-29T10:16:20.883Z,56
2023-01-29T10:17:20.960Z,58
2023-01-29T10:18:20.887Z,57
2023-01-29T10:19:20.883Z,63
2023-01-29T10:20:20.888Z,64
2023-01-29T10:21:20.899Z,50
2023-01-29T10:22:20.893Z,59
2023-01-29T10:23:20.879Z,51
2023-01-29T10:24:20.871Z,54
2023-01-29T10:25:21.016Z,56
2023-01-29T10:26:20.912Z,63
2023-01-29T10:27:20.868Z,64
2023-01-29T10:28:20.938Z,51
2023-01-29T10:30:20.888Z,51
2023-01-29T10:31:21.073Z,52
2023-01-29T10:32:20.875Z,61
2023-01-29T10:33:20.868Z,49
2023-01-29T10:34:20.868Z,57
2023-01-29T10:36:20.874Z,50
2023-01-29T10:37:20.871Z,49
2023-01-29T10:38:20.896Z,58
2023-01-29T10:39:20.895Z,57
2023-01-29T10:40:20.915Z,53
2023-01-29T10:41:20.866Z,63
2023-01-29T10:42:20.885Z,54
2023-01-29T10:43:20.874Z,60
2023-01-29T10:44:20.879Z,59
2023-01-29T10:45:20.969Z,54
2023-01-29T10:46:20.866Z,55
2023-01-29T10:47:20.923Z,59
2023-01-29T10:48:20.931Z,57
2023-01-29T10:49:20.869Z,57
2023-01-29T10:50:20.882Z,55
2023-01-29T10:51:20.873Z,55
2023-01-29T10:52:20.864Z,62
2023-01-29T10:53:20.877Z,51
2023-01-29T10:54:20.879Z,53
2023-01-29T10:55:20.877Z,54
2023-01-29T10:56:23.364Z,59
2023-01-29T10:58:20.878Z,61
2023-01-29T10:59:20.890Z,53
2023-01-29T11:00:20.869Z,52
2023-01-29T11:01:20.948Z,58
2023-01-29T11:02:20.921Z,55
2023-01-29T11:03:28.087Z,52
2023-01-29T11:04:20.884Z,60
2023-01-29T11:05:20.863Z,56
2023-01-29T11:06:20.875Z,62
2023-01-29T11:07:20.887Z,48
2023-01-29T11:08:20.877Z,58
2023-01-29T11:10:20.880Z,53
2023-01-29T11:11:20.887Z,64
2023-01-29T11:12:21.758Z,59
2023-01-29T11:13:20.860Z,48
2023-01-29T11:14:20.867Z,54
2023-01-29T11:15:20.870Z,58
2023-01-29T11:16:20.860Z,54
2023-01-29T11:17:20.954Z,58
2023-01-29T11:18:20.861Z,49
2023-01-29T11:19:20.861Z,55
2023-01-29T11:20:20.875Z,45
2023-01-29T11:21:20.865Z,56
2023-01-29T11:22:20.858Z,54
2023-01-29T11:23:20.864Z,60
2023-01-29T11:24:20.867Z,58
2023-01-29T11:25:20.859Z,49
2023-01-29T11:27:20.864Z,58
2023-01-29T11:28:20.850Z,53
2023-01-29T11:30:20.868Z,63
2023-01-29T11:31:20.981Z,64
2023-01-29T11:32:20.853Z,57
2023-01-29T11:33:20.871Z,51
2023-01-29T11:34:20.862Z,58
2023-01-29T11:35:20.856Z,51
2023-01-29T11:36:20.855Z,60
2023-01-29T11:37:20.858Z,57
2023-01-29T11:38:20.893Z,54
2023-01-29T11:39:20.861Z,54
2023-01-29T11:40:20.855Z,54
2023-01-29T11:41:20.848Z,54
2023-01-29T11:42:20.862Z,54
2023-01-29T11:43:20.863Z,58
2023-01-29T11:44:20.844Z,51
2023-01-29T11:45:20.854Z,45
2023-01-29T11:46:20.903Z,51
2023-01-29T11:47:20.851Z,54
2023-01-29T11:48:20.858Z,60
2023-01-29T11:49:21.156Z,52
2023-01-29T11:50:20.853Z,49
2023-01-29T11:51:20.857Z,58
2023-01-29T11:52:20.873Z,54
2023-01-29T11:53:20.865Z,55
2023-01-29T11:54:20.856Z,46
2023-01-29T11:55:20.840Z,51
2023-01-29T11:56:20.865Z,50
2023-01-29T11:57:20.849Z,49
2023-01-29T11:58:20.855Z,50
2023-01-29T12:00:20.871Z,51
2023-01-29T12:01:20.853Z,44
2023-01-29T12:02:20.843Z,54
2023-01-29T12:03:22.083Z,47
2023-01-29T12:04:20.942Z,62
2023-01-29T12:05:20.854Z,56
2023-01-29T12:06:20.869Z,61
2023-01-29T12:07:20.850Z,50
2023-01-29T12:08:20.847Z,54
2023-01-29T12:09:20.843Z,54
2023-01-29T12:10:20.857Z,49
2023-01-29T12:11:20.853Z,55
2023-01-29T12:12:20.850Z,54
2023-01-29T12:13:20.852Z,55
2023-01-29T12:14:20.850Z,52
2023-01-29T12:15:20.850Z,57
2023-01-29T12:16:20.897Z,49
2023-01-29T12:17:20.845Z,47
2023-01-29T12:18:20.857Z,57
2023-01-29T12:20:20.852Z,47
2023-01-29T12:21:20.852Z,56
2023-01-29T12:22:20.852Z,55
2023-01-29T12:23:20.843Z,57
2023-01-29T12:24:20.846Z,59
2023-01-29T12:25:20.843Z,52
2023-01-29T12:26:20.873Z,58
2023-01-29T12:27:20.848Z,57
2023-01-29T12:28:20.848Z,60
2023-01-29T12:29:20.837Z,57
2023-01-29T12:30:20.844Z,55
2023-01-29T12:32:20.841Z,51
2023-01-29T12:33:20.847Z,52
2023-01-29T12:34:20.861Z,58
2023-01-29T12:35:20.860Z,54
2023-01-29T12:37:20.846Z,48
2023-01-29T12:38:20.846Z,57
2023-01-29T12:39:20.849Z,45
2023-01-29T12:40:20.889Z,55
2023-01-29T12:41:20.855Z,48
2023-01-29T12:42:20.895Z,56
2023-01-29T12:43:20.910Z,56
2023-01-29T12:44:20.838Z,57
2023-01-29T12:45:20.838Z,60
2023-01-29T12:46:20.971Z,50
2023-01-29T12:47:20.849Z,58
2023-01-29T12:48:20.841Z,55
2023-01-29T12:49:20.856Z,51
2023-01-29T12:50:20.861Z,56
2023-01-29T12:52:20.837Z,58
2023-01-29T12:53:20.837Z,57
2023-01-29T12:54:20.839Z,49
2023-01-29T12:55:20.839Z,58
2023-01-29T12:56:20.832Z,50
2023-01-29T12:57:20.839Z,56
2023-01-29T12:58:20.857Z,47
2023-01-29T12:59:20.870Z,58
2023-01-29T13:00:20.830Z,47
2023-01-29T13:01:20.925Z,52
2023-01-29T13:02:20.837Z,52
2023-01-29T13:03:20.895Z,52
2023-01-29T13:04:20.832Z,48
2023-01-29T13:06:20.851Z,54
2023-01-29T13:07:20.826Z,53
2023-01-29T13:08:20.825Z,47
2023-01-29T13:09:20.845Z,48
2023-01-29T13:10:20.844Z,52
2023-01-29T13:11:20.827Z,55
2023-01-29T13:13:20.840Z,49
2023-01-29T13:14:20.829Z,53
2023-01-29T13:15:20.855Z,45
2023-01-29T13:16:20.844Z,48
2023-01-29T13:18:20.824Z,50
2023-01-29T13:19:20.824Z,51
2023-01-29T13:20:20.830Z,48
2023-01-29T13:21:20.829Z,49
2023-01-29T13:22:20.921Z,50
2023-01-29T13:23:20.827Z,55
2023-01-29T13:24:20.825Z,53
2023-01-29T13:26:20.913Z,49
2023-01-29T13:27:20.830Z,52
2023-01-29T13:28:20.830Z,50
2023-01-29T13:29:20.825Z,51
2023-01-29T13:30:20.815Z,52
2023-01-29T13:31:20.863Z,53
2023-01-29T13:32:20.920Z,49
2023-01-29T13:33:20.840Z,49
2023-01-29T13:34:20.829Z,53
2023-01-29T13:35:20.840Z,49
2023-01-29T13:36:20.826Z,48
2023-01-29T13:37:20.829Z,51
2023-01-29T13:38:20.828Z,50
2023-01-29T13:39:20.823Z,51
2023-01-29T13:40:20.823Z,49
2023-01-29T13:41:20.833Z,51
2023-01-29T13:42:20.827Z,48
2023-01-29T13:43:20.817Z,49
2023-01-29T13:45:20.822Z,52
2023-01-29T13:46:20.866Z,54
2023-01-29T13:47:20.822Z,48
2023-01-29T13:49:20.840Z,49
2023-01-29T13:50:20.852Z,49
2023-01-29T13:51:20.862Z,53
2023-01-29T13:52:20.895Z,50
2023-01-29T13:53:20.826Z,46
2023-01-29T13:54:20.824Z,59
2023-01-29T13:55:20.817Z,57
2023-01-29T13:56:20.816Z,50
2023-01-29T13:57:20.816Z,54
2023-01-29T13:58:20.821Z,52
2023-01-29T13:59:20.824Z,55
2023-01-29T14:00:20.894Z,52
2023-01-29T14:01:20.897Z,48
2023-01-29T14:03:20.821Z,52
2023-01-29T14:04:20.816Z,49
2023-01-29T14:05:20.826Z,49
2023-01-29T14:06:20.816Z,53
2023-01-29T14:07:20.887Z,54
2023-01-29T14:08:20.831Z,55
2023-01-29T14:09:20.826Z,53
2023-01-29T14:10:20.813Z,57
2023-01-29T14:11:20.806Z,50
2023-01-29T14:12:20.825Z,50
2023-01-29T14:13:20.832Z,52
2023-01-29T14:14:20.812Z,54
2023-01-29T14:15:21.943Z,51
2023-01-29T14:16:20.893Z,52
2023-01-29T14:18:20.826Z,57
2023-01-29T14:19:20.829Z,51
2023-01-29T14:20:20.814Z,54
2023-01-29T14:21:20.906Z,51
2023-01-29T14:22:20.810Z,58
2023-01-29T14:23:20.815Z,48
2023-01-29T14:24:20.968Z,53
2023-01-29T14:25:20.824Z,49
2023-01-29T14:26:20.862Z,52
2023-01-29T14:27:20.818Z,46
2023-01-29T14:28:20.812Z,50
2023-01-29T14:30:20.810Z,48
2023-01-29T14:31:20.907Z,50
2023-01-29T14:32:20.829Z,56
2023-01-29T14:33:20.812Z,48
2023-01-29T14:34:20.882Z,49
2023-01-29T14:35:20.851Z,48
2023-01-29T14:36:20.801Z,53
2023-01-29T14:37:20.806Z,49
2023-01-29T14:38:20.820Z,48
2023-01-29T14:39:20.874Z,47
2023-01-29T14:40:20.821Z,55
2023-01-29T14:41:20.810Z,52
2023-01-29T14:42:20.824Z,45
2023-01-29T14:43:20.820Z,52
2023-01-29T14:44:20.811Z,45
2023-01-29T14:45:20.803Z,51
2023-01-29T14:46:20.842Z,47
2023-01-29T14:47:20.802Z,51
2023-01-29T14:48:20.824Z,49
2023-01-29T14:49:20.804Z,51
2023-01-29T14:50:20.798Z,49
2023-01-29T14:51:20.814Z,48
2023-01-29T14:52:20.806Z,47
2023-01-29T14:53:20.822Z,50
2023-01-29T14:55:20.807Z,49
2023-01-29T14:56:20.925Z,49
2023-01-29T14:58:20.803Z,46
2023-01-29T14:59:20.845Z,47
2023-01-29T15:00:20.796Z,52
2023-01-29T15:01:20.946Z,49
2023-01-29T15:02:20.948Z,50
2023-01-29T15:04:20.814Z,50
2023-01-29T15:05:20.814Z,50
2023-01-29T15:06:20.803Z,49
2023-01-29T15:08:20.839Z,50
2023-01-29T15:09:22.076Z,51
2023-01-29T15:10:23.179Z,47
2023-01-29T15:11:20.807Z,57
2023-01-29T15:12:20.797Z,42
2023-01-29T15:13:20.804Z,46
2023-01-29T15:14:20.792Z,51
2023-01-29T15:15:20.797Z,45
2023-01-29T15:16:20.791Z,52
2023-01-29T15:17:20.796Z,48
2023-01-29T15:18:20.794Z,50
2023-01-29T15:19:20.796Z,49
2023-01-29T15:21:20.836Z,53
2023-01-29T15:22:20.801Z,46
2023-01-29T15:23:20.797Z,45
2023-01-29T15:24:20.802Z,48
2023-01-29T15:25:20.896Z,42
2023-01-29T15:26:20.936Z,52
2023-01-29T15:27:20.795Z,53
2023-01-29T15:28:20.797Z,46
2023-01-29T15:30:20.799Z,45
2023-01-29T15:31:20.960Z,50
2023-01-29T15:32:20.797Z,52
2023-01-29T15:33:20.856Z,47
2023-01-29T15:35:20.812Z,49
2023-01-29T15:36:20.812Z,44
2023-01-29T15:37:20.788Z,47
2023-01-29T15:38:20.791Z,44
2023-01-29T15:39:20.805Z,52
2023-01-29T15:40:20.901Z,54
2023-01-29T15:41:20.801Z,49
2023-01-29T15:42:20.783Z,43
2023-01-29T15:43:20.783Z,46
2023-01-29T15:44:20.801Z,46
2023-01-29T15:45:20.806Z,51
2023-01-29T15:46:20.792Z,46
2023-01-29T15:47:20.855Z,51
2023-01-29T15:48:20.791Z,41
2023-01-29T15:49:20.804Z,46
2023-01-29T15:50:20.791Z,51
2023-01-29T15:51:20.851Z,45
2023-01-29T15:52:20.794Z,52
2023-01-29T15:54:20.782Z,48
2023-01-29T15:56:20.793Z,47
2023-01-29T15:57:20.795Z,50
2023-01-29T15:58:20.783Z,43
2023-01-29T15:59:20.783Z,46
2023-01-29T16:00:20.785Z,48
2023-01-29T16:01:20.828Z,44
2023-01-29T16:02:20.815Z,49
2023-01-29T16:03:20.791Z,47
2023-01-29T16:05:20.779Z,44
2023-01-29T16:06:20.787Z,41
2023-01-29T16:07:20.833Z,44
2023-01-29T16:08:20.790Z,38
2023-01-29T16:09:20.809Z,46
2023-01-29T16:10:20.776Z,47
2023-01-29T16:11:20.777Z,45
2023-01-29T16:12:20.808Z,43
2023-01-29T16:13:20.781Z,41
2023-01-29T16:14:20.782Z,44
2023-01-29T16:15:20.793Z,49
2023-01-29T16:16:21.035Z,43
2023-01-29T16:17:20.817Z,41
2023-01-29T16:18:20.801Z,44
2023-01-29T16:19:20.780Z,42
2023-01-29T16:20:20.787Z,45
2023-01-29T16:21:20.775Z,46
2023-01-29T16:22:20.794Z,44
2023-01-29T16:23:20.773Z,44
2023-01-29T16:24:20.791Z,44
2023-01-29T16:25:21.042Z,39
2023-01-29T16:26:20.906Z,43
2023-01-29T16:27:20.781Z,42
2023-01-29T16:28:20.778Z,43
2023-01-29T16:29:20.776Z,44
2023-01-29T16:30:20.771Z,41
2023-01-29T16:31:20.908Z,41
2023-01-29T16:32:20.778Z,38
2023-01-29T16:33:20.803Z,32
2023-01-29T16:34:20.789Z,41
2023-01-29T16:35:20.914Z,44
2023-01-29T16:36:20.781Z,40
2023-01-29T16:37:20.789Z,40
2023-01-29T16:39:20.776Z,39
2023-01-29T16:40:20.773Z,38
2023-01-29T16:41:20.784Z,40
2023-01-29T16:42:20.807Z,36
2023-01-29T16:43:22.717Z,37
2023-01-29T16:44:20.767Z,35
2023-01-29T16:45:20.779Z,37
2023-01-29T16:46:20.933Z,33
2023-01-29T16:47:20.769Z,29
2023-01-29T16:48:20.774Z,41
2023-01-29T16:49:20.787Z,33
2023-01-29T16:50:20.789Z,44
2023-01-29T16:51:20.783Z,36
2023-01-29T16:52:20.784Z,32
2023-01-29T16:53:20.765Z,44
2023-01-29T16:54:20.764Z,36
2023-01-29T16:55:20.983Z,34
2023-01-29T16:56:20.773Z,36
2023-01-29T16:57:20.762Z,36
2023-01-29T16:58:20.767Z,38
2023-01-29T16:59:20.761Z,38
2023-01-29T17:00:20.776Z,36
2023-01-29T17:01:20.788Z,40
2023-01-29T17:03:20.877Z,38
2023-01-29T17:04:20.769Z,36
2023-01-29T17:05:20.772Z,40
2023-01-29T17:06:20.786Z,40
2023-01-29T17:07:20.766Z,43
2023-01-29T17:08:20.840Z,40
2023-01-29T17:09:20.819Z,34
2023-01-29T17:10:20.786Z,39
2023-01-29T17:11:20.768Z,39
2023-01-29T17:12:20.770Z,43
2023-01-29T17:13:20.768Z,36
2023-01-29T17:14:20.759Z,37
2023-01-29T17:15:20.755Z,40
2023-01-29T17:16:20.812Z,36
2023-01-29T17:18:21.841Z,39
2023-01-29T17:19:20.954Z,36
2023-01-29T17:20:20.787Z,32
2023-01-29T17:21:20.770Z,39
2023-01-29T17:22:20.758Z,35
2023-01-29T17:23:20.771Z,35
2023-01-29T17:24:20.762Z,37
2023-01-29T17:25:20.997Z,37
2023-01-29T17:26:20.787Z,40
2023-01-29T17:27:20.768Z,40
2023-01-29T17:28:20.757Z,36
2023-01-29T17:29:20.829Z,38
2023-01-29T17:30:20.826Z,41
2023-01-29T17:32:20.758Z,35
2023-01-29T17:33:20.755Z,37
2023-01-29T17:35:21.118Z,40
2023-01-29T17:36:20.801Z,36
2023-01-29T17:37:20.755Z,41
2023-01-29T17:38:26.067Z,40
2023-01-29T17:39:21.076Z,43
2023-01-29T17:40:20.765Z,38
2023-01-29T17:41:20.766Z,39
2023-01-29T17:42:20.763Z,42
2023-01-29T17:43:20.772Z,33
2023-01-29T17:44:20.758Z,46
2023-01-29T17:45:20.757Z,39
2023-01-29T17:46:20.748Z,37
2023-01-29T17:47:20.751Z,39
2023-01-29T17:48:20.840Z,42
2023-01-29T17:49:20.755Z,41
2023-01-29T17:50:20.747Z,45
2023-01-29T17:51:21.902Z,44
2023-01-29T17:52:20.749Z,46
2023-01-29T17:53:20.745Z,39
2023-01-29T17:54:20.751Z,44
2023-01-29T17:55:20.770Z,37
2023-01-29T17:56:20.868Z,41
2023-01-29T17:57:20.768Z,39
2023-01-29T17:58:20.829Z,39
2023-01-29T17:59:20.753Z,37
2023-01-29T18:01:20.748Z,43
2023-01-29T18:02:28.868Z,42
2023-01-29T18:03:20.852Z,38
2023-01-29T18:04:20.882Z,44
2023-01-29T18:05:21.054Z,48
2023-01-29T18:06:20.773Z,33
2023-01-29T18:07:20.756Z,40
2023-01-29T18:08:20.743Z,35
2023-01-29T18:09:20.763Z,42
2023-01-29T18:10:20.857Z,47
2023-01-29T18:11:20.743Z,37
2023-01-29T18:12:20.760Z,35
2023-01-29T18:13:20.769Z,43
2023-01-29T18:14:20.743Z,42
2023-01-29T18:15:20.929Z,33
2023-01-29T18:16:20.833Z,39
2023-01-29T18:17:20.750Z,31
2023-01-29T18:19:20.751Z,38
2023-01-29T18:20:20.814Z,43
2023-01-29T18:21:20.753Z,39
2023-01-29T18:22:20.750Z,39
2023-01-29T18:23:20.749Z,45
2023-01-29T18:24:20.747Z,40
2023-01-29T18:25:21.245Z,44
2023-01-29T18:26:20.804Z,39
2023-01-29T18:27:20.781Z,44
2023-01-29T18:28:20.742Z,42
2023-01-29T18:29:20.752Z,39
2023-01-29T18:30:20.890Z,38
2023-01-29T18:31:20.839Z,40
2023-01-29T18:32:20.739Z,33
2023-01-29T18:33:20.761Z,39
2023-01-29T18:34:20.758Z,38
2023-01-29T18:36:20.742Z,44
2023-01-29T18:37:20.749Z,34
2023-01-29T18:38:20.792Z,39
2023-01-29T18:40:20.747Z,37
2023-01-29T18:41:20.743Z,42
2023-01-29T18:42:20.749Z,38
2023-01-29T18:44:20.747Z,39
2023-01-29T18:45:20.736Z,38
2023-01-29T18:46:20.739Z,41
2023-01-29T18:47:20.739Z,42
2023-01-29T18:48:20.749Z,46
2023-01-29T18:49:20.733Z,41
2023-01-29T18:50:20.770Z,42
2023-01-29T18:51:20.741Z,41
2023-01-29T18:52:20.743Z,39
2023-01-29T18:53:20.745Z,41
2023-01-29T18:54:20.749Z,40
2023-01-29T18:55:20.737Z,42
2023-01-29T18:56:20.733Z,42
2023-01-29T18:58:25.254Z,38
2023-01-29T18:58:26.516Z,50
2023-01-29T18:59:20.736Z,44
2023-01-29T19:00:20.737Z,43
2023-01-29T19:01:20.753Z,35
2023-01-29T19:02:20.750Z,43
2023-01-29T19:03:20.734Z,43
2023-01-29T19:04:20.749Z,39
2023-01-29T19:05:20.735Z,38
2023-01-29T19:06:20.752Z,40
2023-01-29T19:07:20.727Z,45
2023-01-29T19:08:20.729Z,44
2023-01-29T19:09:20.729Z,45
2023-01-29T19:10:20.736Z,41
2023-01-29T19:11:20.752Z,42
2023-01-29T19:12:20.731Z,35
2023-01-29T19:13:20.734Z,37
2023-01-29T19:14:20.736Z,43
2023-01-29T19:15:20.813Z,42
2023-01-29T19:16:20.727Z,44
2023-01-29T19:17:20.781Z,42
2023-01-29T19:19:20.747Z,36
2023-01-29T19:20:20.740Z,37
2023-01-29T19:21:20.731Z,39
2023-01-29T19:22:20.728Z,42
2023-01-29T19:23:20.758Z,41
2023-01-29T19:24:20.728Z,38
2023-01-29T19:25:21.367Z,45
2023-01-29T19:26:20.821Z,46
2023-01-29T19:27:20.762Z,35
2023-01-29T19:28:20.730Z,39
2023-01-29T19:29:20.730Z,41
2023-01-29T19:30:20.761Z,35
2023-01-29T19:31:20.791Z,47
2023-01-29T19:32:20.758Z,39
2023-01-29T19:33:20.735Z,36
2023-01-29T19:34:20.724Z,41
2023-01-29T19:35:20.736Z,40
2023-01-29T19:36:20.731Z,34
2023-01-29T19:37:20.726Z,42
2023-01-29T19:38:20.728Z,43
2023-01-29T19:39:20.732Z,37
2023-01-29T19:40:20.724Z,41
2023-01-29T19:42:20.731Z,41
2023-01-29T19:43:20.723Z,42
2023-01-29T19:44:20.735Z,40
2023-01-29T19:45:49.945Z,40
2023-01-29T19:46:20.723Z,36
2023-01-29T19:47:20.837Z,43
2023-01-29T19:48:20.747Z,36
2023-01-29T19:49:20.775Z,47
2023-01-29T19:50:20.745Z,39
2023-01-29T19:51:20.723Z,43
2023-01-29T19:52:20.723Z,43
2023-01-29T19:53:20.733Z,43
2023-01-29T19:54:20.720Z,35
2023-01-29T19:55:20.997Z,39
2023-01-29T19:56:20.744Z,48
2023-01-29T19:57:20.723Z,38
2023-01-29T19:58:20.714Z,39
2023-01-29T20:00:20.726Z,42
2023-01-29T20:01:20.728Z,44
2023-01-29T20:02:20.723Z,42
2023-01-29T20:03:20.743Z,37
2023-01-29T20:04:20.730Z,38
2023-01-29T20:05:20.827Z,39
2023-01-29T20:06:20.715Z,41
2023-01-29T20:08:20.744Z,42
2023-01-29T20:10:20.942Z,36
2023-01-29T20:11:20.706Z,39
2023-01-29T20:12:20.724Z,41
2023-01-29T20:13:20.724Z,45
2023-01-29T20:14:20.706Z,37
2023-01-29T20:15:20.718Z,37
2023-01-29T20:16:20.769Z,43
2023-01-29T20:17:20.741Z,39
2023-01-29T20:18:20.732Z,47
2023-01-29T20:19:20.712Z,42
2023-01-29T20:20:20.878Z,33
2023-01-29T20:21:20.716Z,39
2023-01-29T20:22:20.791Z,34
2023-01-29T20:23:36.617Z,40
2023-01-29T20:24:20.710Z,41
2023-01-29T20:25:20.716Z,31
2023-01-29T20:26:20.787Z,41
2023-01-29T20:27:20.733Z,42
2023-01-29T20:28:20.716Z,37
2023-01-29T20:29:20.733Z,39
2023-01-29T20:30:20.741Z,41
2023-01-29T20:31:20.731Z,41